createdAt,value
2023-03-15T00:00:53.782Z,942.17
2023-03-15T00:03:20.534Z,942.19
2023-03-15T00:05:46.894Z,942.11
2023-03-15T00:08:14.282Z,942.17
2023-03-15T00:10:40.644Z,942.10
2023-03-15T00:13:07.012Z,942.07
2023-03-15T00:15:33.418Z,942.05
2023-03-15T00:17:59.754Z,942.05
2023-03-15T00:20:26.066Z,942.10
2023-03-15T00:22:52.436Z,942.13
2023-03-15T00:25:18.815Z,942.10
2023-03-15T00:27:45.165Z,942.15
2023-03-15T00:30:11.551Z,942.15
2023-03-15T00:32:37.931Z,942.12
2023-03-15T00:35:04.295Z,942.07
2023-03-15T00:37:30.649Z,941.98
2023-03-15T00:39:57.053Z,941.98
2023-03-15T00:42:23.365Z,941.93
2023-03-15T00:44:49.704Z,941.91
2023-03-15T00:47:16.091Z,941.94
2023-03-15T00:49:42.442Z,941.94
2023-03-15T00:52:08.807Z,941.94
2023-03-15T00:54:35.146Z,941.95
2023-03-15T00:57:01.511Z,941.88
2023-03-15T00:59:27.900Z,941.81
2023-03-15T01:01:54.299Z,941.81
2023-03-15T01:04:20.556Z,941.80
2023-03-15T01:06:46.930Z,941.76
2023-03-15T01:09:13.301Z,941.71
2023-03-15T01:11:39.676Z,941.70
2023-03-15T01:14:06.035Z,941.60
2023-03-15T01:16:32.368Z,941.55
2023-03-15T01:18:58.671Z,941.62
2023-03-15T01:21:25.051Z,941.59
2023-03-15T01:23:51.390Z,941.51
2023-03-15T01:26:17.732Z,941.50
2023-03-15T01:28:44.077Z,941.43
2023-03-15T01:31:10.470Z,941.45
2023-03-15T01:33:36.787Z,941.48
2023-03-15T01:36:03.148Z,941.48
2023-03-15T01:38:29.502Z,941.45
2023-03-15T01:40:55.856Z,941.45
2023-03-15T01:43:22.199Z,941.41
2023-03-15T01:45:48.557Z,941.39
2023-03-15T01:48:14.946Z,941.29
2023-03-15T01:50:41.301Z,941.21
2023-03-15T01:53:07.656Z,941.20
2023-03-15T01:55:33.963Z,941.22
2023-03-15T01:58:00.338Z,941.20
2023-03-15T02:00:26.739Z,941.20
2023-03-15T02:02:53.124Z,941.14
2023-03-15T02:05:19.482Z,941.13
2023-03-15T02:07:45.837Z,941.11
2023-03-15T02:10:12.149Z,941.07
2023-03-15T02:12:38.493Z,941.04
2023-03-15T02:15:04.871Z,940.91
2023-03-15T02:17:31.201Z,940.95
2023-03-15T02:19:57.521Z,940.94
2023-03-15T02:22:23.868Z,940.88
2023-03-15T02:24:50.247Z,940.85
2023-03-15T02:27:16.616Z,940.81
2023-03-15T02:29:42.922Z,940.79
2023-03-15T02:32:09.310Z,940.80
2023-03-15T02:34:35.674Z,940.80
2023-03-15T02:37:02.015Z,940.76
2023-03-15T02:39:28.350Z,940.76
2023-03-15T02:41:54.749Z,940.86
2023-03-15T02:44:21.082Z,940.83
2023-03-15T02:46:47.527Z,940.84
2023-03-15T02:49:13.840Z,940.84
2023-03-15T02:51:40.223Z,940.83
2023-03-15T02:54:06.582Z,940.72
2023-03-15T02:56:32.919Z,940.78
2023-03-15T02:58:59.284Z,940.67
2023-03-15T03:01:25.664Z,940.62
2023-03-15T03:03:52.243Z,940.71
2023-03-15T03:06:18.635Z,940.62
2023-03-15T03:08:44.954Z,940.60
2023-03-15T03:11:11.343Z,940.65
2023-03-15T03:13:37.661Z,940.59
2023-03-15T03:16:04.019Z,940.55
2023-03-15T03:18:30.346Z,940.47
2023-03-15T03:20:56.733Z,940.49
2023-03-15T03:23:23.060Z,940.44
2023-03-15T03:25:49.440Z,940.38
2023-03-15T03:28:15.768Z,940.45
2023-03-15T03:30:42.146Z,940.45
2023-03-15T03:33:08.447Z,940.43
2023-03-15T03:35:34.858Z,940.34
2023-03-15T03:38:01.139Z,940.31
2023-03-15T03:40:27.485Z,940.28
2023-03-15T03:42:53.813Z,940.25
2023-03-15T03:45:20.201Z,940.28
2023-03-15T03:47:46.514Z,940.21
2023-03-15T03:50:12.905Z,940.25
2023-03-15T03:52:39.228Z,940.23
2023-03-15T03:55:05.606Z,940.19
2023-03-15T03:57:32.044Z,940.14
2023-03-15T03:59:58.328Z,940.17
2023-03-15T04:02:24.719Z,940.19
2023-03-15T04:04:51.054Z,940.18
2023-03-15T04:07:17.411Z,940.14
2023-03-15T04:09:43.802Z,940.12
2023-03-15T04:12:10.184Z,940.06
2023-03-15T04:14:36.541Z,940.09
2023-03-15T04:17:02.903Z,940.08
2023-03-15T04:19:29.282Z,940.03
2023-03-15T04:21:55.627Z,940.03
2023-03-15T04:24:21.969Z,939.99
2023-03-15T04:26:48.335Z,939.96
2023-03-15T04:29:14.674Z,940.01
2023-03-15T04:31:41.058Z,940.00
2023-03-15T04:34:07.412Z,940.02
2023-03-15T04:36:33.727Z,939.95
2023-03-15T04:39:00.100Z,939.94
2023-03-15T04:41:26.459Z,939.92
2023-03-15T04:43:52.833Z,939.95
2023-03-15T04:46:19.176Z,940.02
2023-03-15T04:48:45.647Z,939.93
2023-03-15T04:51:12.046Z,940.01
2023-03-15T04:53:38.470Z,940.00
2023-03-15T04:56:05.346Z,940.07
2023-03-15T04:58:31.783Z,940.00
2023-03-15T05:00:58.208Z,939.98
2023-03-15T05:03:24.535Z,939.90
2023-03-15T05:05:50.898Z,939.93
2023-03-15T05:08:17.448Z,939.97
2023-03-15T05:10:43.781Z,939.96
2023-03-15T05:13:10.157Z,940.02
2023-03-15T05:15:36.516Z,940.02
2023-03-15T05:18:02.857Z,940.01
2023-03-15T05:20:29.264Z,939.96
2023-03-15T05:22:55.688Z,939.94
2023-03-15T05:25:22.039Z,940.03
2023-03-15T05:27:48.364Z,939.98
2023-03-15T05:30:14.730Z,939.95
2023-03-15T05:32:41.094Z,939.97
2023-03-15T05:35:07.511Z,939.88
2023-03-15T05:37:33.847Z,939.93
2023-03-15T05:40:00.215Z,939.96
2023-03-15T05:42:26.553Z,939.94
2023-03-15T05:44:52.910Z,939.88
2023-03-15T05:47:19.346Z,939.95
2023-03-15T05:49:45.701Z,939.85
2023-03-15T05:52:12.335Z,939.86
2023-03-15T05:54:38.746Z,939.88
2023-03-15T05:57:05.044Z,939.85
2023-03-15T05:59:31.585Z,939.89
2023-03-15T06:01:57.926Z,939.86
2023-03-15T06:04:24.336Z,939.93
2023-03-15T06:06:50.690Z,939.88
2023-03-15T06:09:17.044Z,939.88
2023-03-15T06:11:43.439Z,939.86
2023-03-15T06:14:09.817Z,939.87
2023-03-15T06:16:36.285Z,939.83
2023-03-15T06:19:02.568Z,939.79
2023-03-15T06:21:28.944Z,939.81
2023-03-15T06:23:55.615Z,939.85
2023-03-15T06:26:22.120Z,939.99
2023-03-15T06:28:48.489Z,939.99
2023-03-15T06:31:14.959Z,939.98
2023-03-15T06:33:41.189Z,939.87
2023-03-15T06:36:07.605Z,939.87
2023-03-15T06:38:33.925Z,939.79
2023-03-15T06:41:00.420Z,939.69
2023-03-15T06:43:26.744Z,939.89
2023-03-15T06:45:53.244Z,939.92
2023-03-15T06:48:19.537Z,939.81
2023-03-15T06:50:47.701Z,939.71
2023-03-15T06:53:12.863Z,939.74
2023-03-15T06:55:39.225Z,939.77
2023-03-15T06:58:05.580Z,939.86
2023-03-15T07:00:32.130Z,939.80
2023-03-15T07:02:58.516Z,939.75
2023-03-15T07:05:24.859Z,939.66
2023-03-15T07:07:51.228Z,939.67
2023-03-15T07:10:17.664Z,939.69
2023-03-15T07:12:44.016Z,939.77
2023-03-15T07:15:10.520Z,939.67
2023-03-15T07:17:36.836Z,939.67
2023-03-15T07:20:03.218Z,939.58
2023-03-15T07:22:29.856Z,939.51
2023-03-15T07:24:56.170Z,939.55
2023-03-15T07:27:22.538Z,939.66
2023-03-15T07:29:48.898Z,939.55
2023-03-15T07:32:15.403Z,939.56
2023-03-15T07:34:41.812Z,939.56
2023-03-15T07:37:08.195Z,939.61
2023-03-15T07:39:34.589Z,939.56
2023-03-15T07:42:00.939Z,939.55
2023-03-15T07:44:28.384Z,939.51
2023-03-15T07:46:54.792Z,939.66
2023-03-15T07:49:21.134Z,939.54
2023-03-15T07:51:47.488Z,939.60
2023-03-15T07:54:13.832Z,939.69
2023-03-15T07:56:40.327Z,939.64
2023-03-15T07:59:06.665Z,939.56
2023-03-15T08:01:33.049Z,939.58
2023-03-15T08:03:59.425Z,939.54
2023-03-15T08:06:25.773Z,939.51
2023-03-15T08:08:52.174Z,939.48
2023-03-15T08:11:18.580Z,939.40
2023-03-15T08:13:44.930Z,939.40
2023-03-15T08:16:11.354Z,939.37
2023-03-15T08:18:37.694Z,939.28
2023-03-15T08:21:04.062Z,939.19
2023-03-15T08:23:30.443Z,939.12
2023-03-15T08:25:56.870Z,939.13
2023-03-15T08:28:23.222Z,939.12
2023-03-15T08:30:49.595Z,939.20
2023-03-15T08:33:15.945Z,939.18
2023-03-15T08:35:42.345Z,939.06
2023-03-15T08:38:08.717Z,939.13
2023-03-15T08:40:35.100Z,939.23
2023-03-15T08:43:01.477Z,939.24
2023-03-15T08:45:27.818Z,939.22
2023-03-15T08:47:54.176Z,939.14
2023-03-15T08:50:20.509Z,939.08
2023-03-15T08:52:46.917Z,939.02
2023-03-15T08:55:13.253Z,939.17
2023-03-15T08:57:39.659Z,939.25
2023-03-15T09:00:06.004Z,939.15
2023-03-15T09:02:32.476Z,939.16
2023-03-15T09:04:58.815Z,939.22
2023-03-15T09:07:25.169Z,939.26
2023-03-15T09:09:51.552Z,939.17
2023-03-15T09:12:18.032Z,939.23
2023-03-15T09:14:44.406Z,939.25
2023-03-15T09:17:10.992Z,939.17
2023-03-15T09:19:37.318Z,939.18
2023-03-15T09:22:16.868Z,939.12
2023-03-15T09:24:30.051Z,939.13
2023-03-15T09:26:56.400Z,939.22
2023-03-15T09:29:22.723Z,939.16
2023-03-15T09:31:49.127Z,939.11
2023-03-15T09:34:15.520Z,939.10
2023-03-15T09:36:41.829Z,939.13
2023-03-15T09:39:08.164Z,939.08
2023-03-15T09:41:34.541Z,939.04
2023-03-15T09:44:00.925Z,938.98
2023-03-15T09:46:27.346Z,938.92
2023-03-15T09:48:53.682Z,938.82
2023-03-15T09:51:20.073Z,938.87
2023-03-15T09:53:46.461Z,938.90
2023-03-15T09:56:12.796Z,938.88
2023-03-15T09:58:39.126Z,938.84
2023-03-15T10:01:05.532Z,938.84
2023-03-15T10:03:31.969Z,938.80
2023-03-15T10:05:58.243Z,938.76
2023-03-15T10:08:24.589Z,938.86
2023-03-15T10:10:50.989Z,938.87
2023-03-15T10:13:17.395Z,938.85
2023-03-15T10:15:43.759Z,938.88
2023-03-15T10:18:10.061Z,938.79
2023-03-15T10:20:36.393Z,938.81
2023-03-15T10:23:02.801Z,938.82
2023-03-15T10:25:29.164Z,938.84
2023-03-15T10:27:55.829Z,938.82
2023-03-15T10:30:22.138Z,938.88
2023-03-15T10:32:48.531Z,938.73
2023-03-15T10:35:14.841Z,938.72
2023-03-15T10:37:41.480Z,938.67
2023-03-15T10:40:08.033Z,938.77
2023-03-15T10:42:34.789Z,938.83
2023-03-15T10:45:00.986Z,938.80
2023-03-15T10:47:27.394Z,938.71
2023-03-15T10:49:53.771Z,938.68
2023-03-15T10:52:20.115Z,938.65
2023-03-15T10:54:48.109Z,938.63
2023-03-15T10:57:12.912Z,938.65
2023-03-15T10:59:39.254Z,938.71
2023-03-15T11:02:05.696Z,938.72
2023-03-15T11:04:34.262Z,938.73
2023-03-15T11:06:58.387Z,938.72
2023-03-15T11:09:24.700Z,938.65
2023-03-15T11:11:51.065Z,938.59
2023-03-15T11:14:17.395Z,938.61
2023-03-15T11:16:43.748Z,938.52
2023-03-15T11:19:10.091Z,938.54
2023-03-15T11:21:36.493Z,938.47
2023-03-15T11:24:02.815Z,938.51
2023-03-15T11:26:32.650Z,938.53
2023-03-15T11:28:55.619Z,938.52
2023-03-15T11:31:21.984Z,938.57
2023-03-15T11:33:48.276Z,938.64
2023-03-15T11:36:14.663Z,938.55
2023-03-15T11:38:40.977Z,938.42
2023-03-15T11:41:07.374Z,938.43
2023-03-15T11:43:33.742Z,938.42
2023-03-15T11:46:00.261Z,938.42
2023-03-15T11:48:26.468Z,938.45
2023-03-15T11:50:54.173Z,938.39
2023-03-15T11:53:20.522Z,938.22
2023-03-15T11:55:46.903Z,938.27
2023-03-15T11:58:13.290Z,938.33
2023-03-15T12:00:39.627Z,938.37
2023-03-15T12:03:06.039Z,938.28
2023-03-15T12:05:32.421Z,938.37
2023-03-15T12:07:58.788Z,938.38
2023-03-15T12:10:25.238Z,938.29
2023-03-15T12:12:51.562Z,938.21
2023-03-15T12:15:17.942Z,938.12
2023-03-15T12:17:44.297Z,938.22
2023-03-15T12:20:10.776Z,938.18
2023-03-15T12:22:37.186Z,938.01
2023-03-15T12:25:03.495Z,938.06
2023-03-15T12:27:29.829Z,938.11
2023-03-15T12:29:56.235Z,938.16
2023-03-15T12:32:22.628Z,938.13
2023-03-15T12:34:49.384Z,938.02
2023-03-15T12:37:15.752Z,938.00
2023-03-15T12:39:42.090Z,938.04
2023-03-15T12:42:08.569Z,938.03
2023-03-15T12:44:34.947Z,938.04
2023-03-15T12:47:01.353Z,937.96
2023-03-15T12:49:27.723Z,937.94
2023-03-15T12:51:54.086Z,937.92
2023-03-15T12:54:20.499Z,937.99
2023-03-15T12:56:46.843Z,938.01
2023-03-15T12:59:13.231Z,938.08
2023-03-15T13:01:39.649Z,938.01
2023-03-15T13:04:06.072Z,937.93
2023-03-15T13:06:32.393Z,938.00
2023-03-15T13:08:58.802Z,937.97
2023-03-15T13:11:25.175Z,938.01
2023-03-15T13:13:51.579Z,937.91
2023-03-15T13:16:18.070Z,937.88
2023-03-15T13:18:44.452Z,937.85
2023-03-15T13:21:10.831Z,937.93
2023-03-15T13:23:37.209Z,937.88
2023-03-15T13:26:03.586Z,937.87
2023-03-15T13:28:30.139Z,938.01
2023-03-15T13:30:56.556Z,938.05
2023-03-15T13:33:22.913Z,938.04
2023-03-15T13:35:49.255Z,938.08
2023-03-15T13:38:15.719Z,938.04
2023-03-15T13:40:42.039Z,938.08
2023-03-15T13:43:09.534Z,938.05
2023-03-15T13:45:35.849Z,938.08
2023-03-15T13:48:02.208Z,938.04
2023-03-15T13:50:28.634Z,938.02
2023-03-15T13:52:55.040Z,938.00
2023-03-15T13:55:21.349Z,938.01
2023-03-15T13:57:47.715Z,938.01
2023-03-15T14:00:14.105Z,938.04
2023-03-15T14:02:40.702Z,938.05
2023-03-15T14:05:07.066Z,938.02
2023-03-15T14:07:33.444Z,938.06
2023-03-15T14:09:59.852Z,938.00
2023-03-15T14:12:26.266Z,938.00
2023-03-15T14:14:52.693Z,937.94
2023-03-15T14:17:19.034Z,938.02
2023-03-15T14:19:45.411Z,937.97
2023-03-15T14:22:11.790Z,937.93
2023-03-15T14:24:38.297Z,937.99
2023-03-15T14:27:04.646Z,937.99
2023-03-15T14:29:30.999Z,937.95
2023-03-15T14:31:57.376Z,937.95
2023-03-15T14:34:23.732Z,937.95
2023-03-15T14:36:51.418Z,937.96
2023-03-15T14:39:17.792Z,937.91
2023-03-15T14:41:44.187Z,937.94
2023-03-15T14:44:10.525Z,937.91
2023-03-15T14:46:37.018Z,937.91
2023-03-15T14:49:03.343Z,937.93
2023-03-15T14:51:29.712Z,937.91
2023-03-15T14:53:56.067Z,937.94
2023-03-15T14:56:22.423Z,937.92
2023-03-15T14:58:48.886Z,938.03
2023-03-15T15:01:15.305Z,937.93
2023-03-15T15:03:41.695Z,937.96
2023-03-15T15:06:08.096Z,937.94
2023-03-15T15:08:34.452Z,938.00
2023-03-15T15:11:00.941Z,938.01
2023-03-15T15:13:27.381Z,938.02
2023-03-15T15:15:56.433Z,938.00
2023-03-15T15:18:20.701Z,937.99
2023-03-15T15:20:47.081Z,938.07
2023-03-15T15:23:13.401Z,938.02
2023-03-15T15:25:39.785Z,938.10
2023-03-15T15:28:06.092Z,938.13
2023-03-15T15:30:32.523Z,938.14
2023-03-15T15:32:58.937Z,938.19
2023-03-15T15:35:25.292Z,938.17
2023-03-15T15:37:51.677Z,938.21
2023-03-15T15:40:18.196Z,938.24
2023-03-15T15:42:44.509Z,938.24
2023-03-15T15:45:13.051Z,938.30
2023-03-15T15:47:39.381Z,938.35
2023-03-15T15:50:05.760Z,938.42
2023-03-15T15:52:32.867Z,938.41
2023-03-15T15:55:00.571Z,938.48
2023-03-15T15:57:26.777Z,938.53
2023-03-15T15:59:53.343Z,938.56
2023-03-15T16:02:19.912Z,938.55
2023-03-15T16:04:46.264Z,938.56
2023-03-15T16:07:12.637Z,938.52
2023-03-15T16:09:39.007Z,938.57
2023-03-15T16:12:05.377Z,938.61
2023-03-15T16:14:31.783Z,938.52
2023-03-15T16:16:58.176Z,938.66
2023-03-15T16:19:24.519Z,938.69
2023-03-15T16:21:50.883Z,938.70
2023-03-15T16:24:17.335Z,938.72
2023-03-15T16:26:43.726Z,938.74
2023-03-15T16:29:10.125Z,938.69
2023-03-15T16:31:36.503Z,938.75
2023-03-15T16:34:02.858Z,938.77
2023-03-15T16:36:29.139Z,938.79
2023-03-15T16:38:55.497Z,938.82
2023-03-15T16:41:21.860Z,938.84
2023-03-15T16:43:49.465Z,938.92
2023-03-15T16:46:14.632Z,938.91
2023-03-15T16:48:40.953Z,938.95
2023-03-15T16:51:09.507Z,938.97
2023-03-15T16:53:35.977Z,938.99
2023-03-15T16:56:02.309Z,939.05
2023-03-15T16:58:28.764Z,939.03
2023-03-15T17:00:55.092Z,939.13
2023-03-15T17:03:21.607Z,939.09
2023-03-15T17:05:47.991Z,939.13
2023-03-15T17:08:14.334Z,939.19
2023-03-15T17:10:40.693Z,939.24
2023-03-15T17:13:07.115Z,939.29
2023-03-15T17:15:33.491Z,939.29
2023-03-15T17:17:59.881Z,939.34
2023-03-15T17:20:26.209Z,939.36
2023-03-15T17:22:52.602Z,939.32
2023-03-15T17:25:19.217Z,939.35
2023-03-15T17:27:45.609Z,939.34
2023-03-15T17:30:11.972Z,939.42
2023-03-15T17:32:38.414Z,939.42
2023-03-15T17:35:04.706Z,939.44
2023-03-15T17:37:31.060Z,939.47
2023-03-15T17:39:57.532Z,939.48
2023-03-15T17:42:23.828Z,939.51
2023-03-15T17:44:50.150Z,939.47
2023-03-15T17:47:16.612Z,939.52
2023-03-15T17:49:42.899Z,939.63
2023-03-15T17:52:09.264Z,939.55
2023-03-15T17:54:35.592Z,939.60
2023-03-15T17:57:01.951Z,939.63
2023-03-15T17:59:28.318Z,939.71
2023-03-15T18:01:54.695Z,939.79
2023-03-15T18:04:21.085Z,939.74
2023-03-15T18:06:47.424Z,939.73
2023-03-15T18:09:13.753Z,939.79
2023-03-15T18:11:40.141Z,939.86
2023-03-15T18:14:06.522Z,939.85
2023-03-15T18:16:33.012Z,939.88
2023-03-15T18:18:59.377Z,939.86
2023-03-15T18:21:25.756Z,939.90
2023-03-15T18:23:52.125Z,939.87
2023-03-15T18:26:18.535Z,939.88
2023-03-15T18:28:44.843Z,939.97
2023-03-15T18:31:11.231Z,940.00
2023-03-15T18:33:37.745Z,939.96
2023-03-15T18:36:04.176Z,939.99
2023-03-15T18:38:30.575Z,940.00
2023-03-15T18:40:56.930Z,940.03
2023-03-15T18:43:23.285Z,939.97
2023-03-15T18:45:49.720Z,940.04
2023-03-15T18:48:16.008Z,940.11
2023-03-15T18:50:42.450Z,940.13
2023-03-15T18:53:08.780Z,940.14
2023-03-15T18:55:36.212Z,940.11
2023-03-15T18:58:02.589Z,940.18
2023-03-15T19:00:28.954Z,940.22
2023-03-15T19:02:55.302Z,940.19
2023-03-15T19:05:21.633Z,940.23
2023-03-15T19:07:48.054Z,940.27
2023-03-15T19:10:14.502Z,940.26
2023-03-15T19:12:40.854Z,940.32
2023-03-15T19:15:07.218Z,940.32
2023-03-15T19:17:33.579Z,940.31
2023-03-15T19:20:00.009Z,940.38
2023-03-15T19:22:26.368Z,940.36
2023-03-15T19:24:52.764Z,940.41
2023-03-15T19:27:19.215Z,940.41
2023-03-15T19:29:45.662Z,940.41
2023-03-15T19:32:12.057Z,940.47
2023-03-15T19:34:38.586Z,940.54
2023-03-15T19:37:04.958Z,940.48
2023-03-15T19:39:31.448Z,940.50
2023-03-15T19:41:57.809Z,940.51
2023-03-15T19:44:24.388Z,940.50
2023-03-15T19:46:50.786Z,940.58
2023-03-15T19:49:17.166Z,940.60
2023-03-15T19:51:43.486Z,940.63
2023-03-15T19:54:09.834Z,940.68
2023-03-15T19:56:36.208Z,940.71
2023-03-15T19:59:02.577Z,940.70
2023-03-15T20:01:29.057Z,940.67
2023-03-15T20:03:55.475Z,940.67
2023-03-15T20:06:21.964Z,940.71
2023-03-15T20:08:48.300Z,940.78
2023-03-15T20:11:14.770Z,940.81
2023-03-15T20:13:41.113Z,940.83
2023-03-15T20:16:07.632Z,940.85
2023-03-15T20:18:33.923Z,940.93
2023-03-15T20:21:00.301Z,940.91
2023-03-15T20:23:26.805Z,940.89
2023-03-15T20:25:53.174Z,940.92
2023-03-15T20:28:19.525Z,940.98
2023-03-15T20:30:45.966Z,940.99
2023-03-15T20:33:12.425Z,940.93
2023-03-15T20:35:38.803Z,941.00
2023-03-15T20:38:05.087Z,940.99
2023-03-15T20:40:31.624Z,940.98
2023-03-15T20:42:58.002Z,941.02
2023-03-15T20:45:24.383Z,941.00
2023-03-15T20:47:50.918Z,941.03
2023-03-15T20:50:20.270Z,941.04
2023-03-15T20:52:46.277Z,941.05
2023-03-15T20:55:12.661Z,941.09
2023-03-15T20:57:39.085Z,941.18
2023-03-15T21:00:05.426Z,941.24
2023-03-15T21:02:31.809Z,941.31
2023-03-15T21:04:58.337Z,941.29
2023-03-15T21:07:24.681Z,941.34
2023-03-15T21:09:54.751Z,941.34
2023-03-15T21:12:21.065Z,941.43
2023-03-15T21:14:47.413Z,941.44
2023-03-15T21:17:13.786Z,941.51
2023-03-15T21:19:40.187Z,941.50
2023-03-15T21:22:06.495Z,941.52
2023-03-15T21:24:34.050Z,941.62
2023-03-15T21:26:59.372Z,941.66
2023-03-15T21:29:25.754Z,941.70
2023-03-15T21:31:52.102Z,941.73
2023-03-15T21:34:18.455Z,941.69
2023-03-15T21:36:44.824Z,941.75
2023-03-15T21:39:11.165Z,941.78
2023-03-15T21:41:37.538Z,941.92
2023-03-15T21:44:03.916Z,941.84
2023-03-15T21:46:30.840Z,941.93
2023-03-15T21:48:57.485Z,941.91
2023-03-15T21:51:23.808Z,941.90
2023-03-15T21:53:50.240Z,941.94
2023-03-15T21:56:16.613Z,941.99
2023-03-15T21:58:45.356Z,941.94
2023-03-15T22:01:12.032Z,941.90
2023-03-15T22:03:38.344Z,942.06
2023-03-15T22:06:04.850Z,942.00
2023-03-15T22:08:31.242Z,942.13
2023-03-15T22:10:57.614Z,942.22
2023-03-15T22:13:23.966Z,942.22
2023-03-15T22:15:50.537Z,942.19
2023-03-15T22:18:16.872Z,942.26
2023-03-15T22:20:43.204Z,942.26
2023-03-15T22:23:09.562Z,942.37
2023-03-15T22:25:35.921Z,942.32
2023-03-15T22:28:02.301Z,942.36
2023-03-15T22:30:28.757Z,942.27
2023-03-15T22:32:55.162Z,942.34
2023-03-15T22:35:21.521Z,942.40
2023-03-15T22:37:47.808Z,942.47
2023-03-15T22:40:16.702Z,942.45
2023-03-15T22:42:43.074Z,942.43
2023-03-15T22:45:09.406Z,942.49
2023-03-15T22:47:35.847Z,942.58
2023-03-15T22:50:02.330Z,942.59
2023-03-15T22:52:28.689Z,942.60
2023-03-15T22:54:55.091Z,942.73
2023-03-15T22:57:21.449Z,942.72
2023-03-15T22:59:48.147Z,942.76
2023-03-15T23:02:14.497Z,942.85
2023-03-15T23:04:40.913Z,942.77
2023-03-15T23:07:07.239Z,942.82
2023-03-15T23:09:33.552Z,942.86
2023-03-15T23:11:59.897Z,942.88
2023-03-15T23:14:26.217Z,942.92
2023-03-15T23:16:52.579Z,942.89
2023-03-15T23:19:19.495Z,942.94
2023-03-15T23:21:45.876Z,943.01
2023-03-15T23:24:12.263Z,942.97
2023-03-15T23:26:38.649Z,942.99
2023-03-15T23:29:05.041Z,942.96
2023-03-15T23:31:31.430Z,943.04
2023-03-15T23:33:57.877Z,943.01
2023-03-15T23:36:24.223Z,943.05
2023-03-15T23:38:50.573Z,943.08
2023-03-15T23:41:16.969Z,943.07
2023-03-15T23:43:43.288Z,943.08
2023-03-15T23:46:09.681Z,943.18
2023-03-15T23:48:36.010Z,943.08
2023-03-15T23:51:02.340Z,943.21
2023-03-15T23:53:28.710Z,943.22
2023-03-15T23:55:55.082Z,943.22
2023-03-15T23:58:21.443Z,943.14
